< Typhoon 201710 2017 Season Typhoon 201712 >
Typhoon 201711 (NALGAE)
General InformationTrack Information on Google MapsDetailed Wind InformationForecast History on Google MapsAccess Analytics MapList of All Images || NewsDisaster Info.WeblogTrackbackTyphoon FrontTwiphoonTyphoon Now!Typhoon ImaginationDisaster Info. XMLResourceGoogle EarthGE AnimationAtom FeedGeoJSON
Detalied Best Track (Time Zone = UTC)
Year Month Day Hour Lat. Long. Pressure (hPa) Wind (kt) Class Image Chart
2017 7 31 06 26.0 157.1 1006 30 2 Image Chart
2017 7 31 09 26.0 157.1 1008 30 2 Image Chart
2017 7 31 12 26.0 157.9 1008 30 2 Image Chart
2017 7 31 15 26.4 160.1 1006 30 2 Image Chart
2017 7 31 18 26.2 160.4 1006 30 2 Image Chart
2017 7 31 21 26.2 160.8 1006 30 2 Image Chart
2017 8 1 00 26.5 162.5 1006 30 2 Image Chart
2017 8 1 03 26.3 162.9 1006 30 2 Image Chart
2017 8 1 06 26.3 163.1 1004 30 2 Image Chart
2017 8 1 09 25.9 163.5 1004 30 2 Image Chart
2017 8 1 12 26.0 163.9 1004 30 2 Image Chart
2017 8 1 15 25.8 164.4 1004 30 2 Image Chart
2017 8 1 18 25.7 164.6 1002 30 2 Image Chart
2017 8 1 21 25.5 165.4 1002 30 2 Image Chart
2017 8 2 00 25.4 165.7 998 35 3 Image Chart
2017 8 2 03 25.7 166.0 998 35 3 Image Chart
2017 8 2 06 25.9 165.5 996 35 3 Image Chart
2017 8 2 09 25.8 165.2 996 35 3 Image Chart
2017 8 2 12 25.9 165.3 996 35 3 Image Chart
2017 8 2 15 26.0 165.1 996 35 3 Image Chart
2017 8 2 18 26.1 165.0 992 40 3 Image Chart
2017 8 2 21 26.4 165.0 992 40 3 Image Chart
2017 8 3 00 26.5 164.7 992 40 3 Image Chart
2017 8 3 03 26.9 164.4 992 40 3 Image Chart
2017 8 3 06 27.2 164.2 992 40 3 Image Chart
2017 8 3 09 27.6 164.1 992 40 3 Image Chart
2017 8 3 12 27.8 164.0 992 40 3 Image Chart
2017 8 3 15 27.9 163.9 992 40 3 Image Chart
2017 8 3 18 28.2 163.4 992 40 3 Image Chart
2017 8 3 21 28.3 163.1 992 40 3 Image Chart
2017 8 4 00 28.4 162.9 992 40 3 Image Chart
2017 8 4 03 28.8 162.8 992 40 3 Image Chart
2017 8 4 06 29.3 162.8 992 40 3 Image Chart
2017 8 4 09 29.5 162.7 992 40 3 Image Chart
2017 8 4 12 29.9 162.4 992 40 3 Image Chart
2017 8 4 15 30.2 162.4 992 40 3 Image Chart
2017 8 4 18 30.7 162.3 992 40 3 Image Chart
2017 8 4 21 31.4 162.3 992 40 3 Image Chart
2017 8 5 00 32.0 162.3 992 40 3 Image Chart
2017 8 5 03 33.0 162.3 992 40 3 Image Chart
2017 8 5 06 34.4 162.0 992 40 3 Image Chart
2017 8 5 09 35.4 161.8 992 40 3 Image Chart
2017 8 5 12 35.7 161.6 992 40 3 Image Chart
2017 8 5 15 37.2 160.6 992 40 3 Image Chart
2017 8 5 18 38.2 160.4 990 45 3 Image Chart
2017 8 5 21 38.8 160.0 990 45 3 Image Chart
2017 8 6 00 40.0 159.0 990 45 6 Image Chart
Japan Meteorological Agency Best Track Data | Correction Date : 2017-08-06
< Typhoon 201710 2017 Season Typhoon 201712 >

Help